Archival Weather

Republic

Farmingdale, New York (KFRG)

Report from: Monday, February 12, 2024 12:53 PM EST
Current time: Saturday, June 22, 2024 6:26 AM EDT

Current weather – Weather history – Daily summaries
Weather forecast

Temperature7.2°C (45.0°F)
Wind chill5.1°C (41.2°F)
Dew point-1.1°C (30.0°F)
Winds 6 kts (3.1 m/s, 6.9 mph) West (270°)
Visibility10 mi. (16.1 km)
Clouds Sky clear
Altimeter29.87 in.Hg (1012 mB)
Relative humidity56 %
Density altitude-788 ft. (-240 m)
Sea-level pressure101.1 kPa (1011 mB, 29.87 in.Hg)
Max temp last 6 hours7.8°C (46.0°F)
Min temp last 6 hours2.2°C (36.0°F)
Remarks Fully automated report
Automated weather observing station without precipitation discriminator
Pressure falling rapidly
Pressure falling more slowly
Flight conditions Visual Meteorological Conditions
Raw dataKFRG 121753Z AUTO 27006KT 10SM CLR 07/M01 A2987 RMK AO1 PRESFR SLP114 T00721011 10078 20022 56033
An error has occurred. This application may no longer respond until reloaded. Reload 🗙